sensor_id;sensor_type;location;lat;lon;timestamp;pressure;altitude;pressure_sealevel;temperature;humidity
73501;BME280;61721;42.206;25.320;2023-09-19T00:00:46;99979.50;;;19.71;52.16
73501;BME280;61721;42.206;25.320;2023-09-19T00:03:14;99970.94;;;19.48;52.91
73501;BME280;61721;42.206;25.320;2023-09-19T00:05:44;99974.50;;;19.42;52.97
73501;BME280;61721;42.206;25.320;2023-09-19T00:08:18;99972.25;;;19.26;52.97
73501;BME280;61721;42.206;25.320;2023-09-19T00:10:49;99975.41;;;19.23;52.75
73501;BME280;61721;42.206;25.320;2023-09-19T00:13:16;99972.44;;;19.31;52.61
73501;BME280;61721;42.206;25.320;2023-09-19T00:15:46;99961.13;;;19.21;52.58
73501;BME280;61721;42.206;25.320;2023-09-19T00:18:16;99965.31;;;19.23;52.59
73501;BME280;61721;42.206;25.320;2023-09-19T00:20:46;99957.97;;;19.17;52.93
73501;BME280;61721;42.206;25.320;2023-09-19T00:23:15;99958.19;;;19.22;53.02
73501;BME280;61721;42.206;25.320;2023-09-19T00:25:42;99954.88;;;18.87;54.31
73501;BME280;61721;42.206;25.320;2023-09-19T00:28:11;99956.13;;;19.04;54.56
73501;BME280;61721;42.206;25.320;2023-09-19T00:30:38;99956.94;;;19.18;54.66
73501;BME280;61721;42.206;25.320;2023-09-19T00:33:05;99960.66;;;19.37;54.29
73501;BME280;61721;42.206;25.320;2023-09-19T00:35:34;99955.16;;;19.50;54.15
73501;BME280;61721;42.206;25.320;2023-09-19T00:38:04;99952.66;;;19.55;54.10
73501;BME280;61721;42.206;25.320;2023-09-19T00:40:32;99955.91;;;19.84;53.25
73501;BME280;61721;42.206;25.320;2023-09-19T00:43:00;99951.47;;;19.11;53.92
73501;BME280;61721;42.206;25.320;2023-09-19T00:45:28;99949.84;;;18.77;54.33
73501;BME280;61721;42.206;25.320;2023-09-19T00:47:56;99949.63;;;18.66;54.59
73501;BME280;61721;42.206;25.320;2023-09-19T00:50:25;99933.22;;;18.99;53.51
73501;BME280;61721;42.206;25.320;2023-09-19T00:52:54;99933.44;;;19.04;53.63
73501;BME280;61721;42.206;25.320;2023-09-19T00:55:25;99945.16;;;19.24;53.64
73501;BME280;61721;42.206;25.320;2023-09-19T00:57:55;99948.53;;;19.13;54.20
73501;BME280;61721;42.206;25.320;2023-09-19T01:00:23;99940.16;;;18.35;55.56
73501;BME280;61721;42.206;25.320;2023-09-19T01:02:51;99940.47;;;17.79;57.05
73501;BME280;61721;42.206;25.320;2023-09-19T01:05:19;99941.16;;;18.21;55.91
73501;BME280;61721;42.206;25.320;2023-09-19T01:07:46;99948.13;;;18.43;55.56
73501;BME280;61721;42.206;25.320;2023-09-19T01:10:17;99950.22;;;18.15;56.33
73501;BME280;61721;42.206;25.320;2023-09-19T01:12:55;99954.69;;;17.75;57.60
73501;BME280;61721;42.206;25.320;2023-09-19T01:15:32;99950.22;;;18.48;55.94
73501;BME280;61721;42.206;25.320;2023-09-19T01:18:13;99946.41;;;18.23;55.99
73501;BME280;61721;42.206;25.320;2023-09-19T01:20:50;99948.94;;;18.24;55.94
73501;BME280;61721;42.206;25.320;2023-09-19T01:23:24;99952.72;;;18.36;55.40
73501;BME280;61721;42.206;25.320;2023-09-19T01:26:18;99953.53;;;18.04;56.59
73501;BME280;61721;42.206;25.320;2023-09-19T01:29:07;99943.72;;;17.62;57.87
73501;BME280;61721;42.206;25.320;2023-09-19T01:31:42;99947.00;;;17.44;58.86
73501;BME280;61721;42.206;25.320;2023-09-19T01:34:10;99944.16;;;16.90;61.00
73501;BME280;61721;42.206;25.320;2023-09-19T01:36:37;99942.41;;;17.51;59.98
73501;BME280;61721;42.206;25.320;2023-09-19T01:39:06;99933.16;;;17.87;58.64
73501;BME280;61721;42.206;25.320;2023-09-19T01:41:47;99939.31;;;18.41;56.96
73501;BME280;61721;42.206;25.320;2023-09-19T01:44:25;99943.41;;;17.84;58.28
73501;BME280;61721;42.206;25.320;2023-09-19T01:47:02;99936.78;;;17.52;59.76
73501;BME280;61721;42.206;25.320;2023-09-19T01:49:37;99939.50;;;18.07;58.57
73501;BME280;61721;42.206;25.320;2023-09-19T01:52:09;99938.03;;;18.37;57.16
73501;BME280;61721;42.206;25.320;2023-09-19T01:54:45;99936.38;;;18.36;56.83
73501;BME280;61721;42.206;25.320;2023-09-19T01:57:28;99929.47;;;18.47;56.64
73501;BME280;61721;42.206;25.320;2023-09-19T02:00:03;99936.41;;;18.69;56.28
73501;BME280;61721;42.206;25.320;2023-09-19T02:02:35;99946.47;;;18.89;55.30
73501;BME280;61721;42.206;25.320;2023-09-19T02:05:04;99937.00;;;18.45;56.58
73501;BME280;61721;42.206;25.320;2023-09-19T02:07:32;99937.84;;;18.32;56.69
73501;BME280;61721;42.206;25.320;2023-09-19T02:10:00;99934.28;;;18.19;57.12
73501;BME280;61721;42.206;25.320;2023-09-19T02:12:29;99934.69;;;18.15;56.67
73501;BME280;61721;42.206;25.320;2023-09-19T02:14:58;99933.84;;;18.22;55.92
73501;BME280;61721;42.206;25.320;2023-09-19T02:17:26;99926.28;;;18.24;55.92
73501;BME280;61721;42.206;25.320;2023-09-19T02:19:55;99921.91;;;18.36;55.64
73501;BME280;61721;42.206;25.320;2023-09-19T02:22:22;99924.84;;;18.14;55.97
73501;BME280;61721;42.206;25.320;2023-09-19T02:24:50;99925.66;;;18.02;56.44
73501;BME280;61721;42.206;25.320;2023-09-19T02:27:18;99931.78;;;18.63;55.07
73501;BME280;61721;42.206;25.320;2023-09-19T02:29:46;99932.44;;;18.65;54.64
73501;BME280;61721;42.206;25.320;2023-09-19T02:32:15;99929.00;;;18.24;55.78
73501;BME280;61721;42.206;25.320;2023-09-19T02:34:44;99928.38;;;18.08;56.50
73501;BME280;61721;42.206;25.320;2023-09-19T02:37:13;99929.19;;;17.96;56.76
73501;BME280;61721;42.206;25.320;2023-09-19T02:39:42;99919.16;;;18.03;56.63
73501;BME280;61721;42.206;25.320;2023-09-19T02:42:09;99917.47;;;18.28;55.87
73501;BME280;61721;42.206;25.320;2023-09-19T02:44:36;99915.56;;;17.96;55.86
73501;BME280;61721;42.206;25.320;2023-09-19T02:47:04;99916.06;;;17.58;56.44
73501;BME280;61721;42.206;25.320;2023-09-19T02:49:31;99919.84;;;17.64;56.46
73501;BME280;61721;42.206;25.320;2023-09-19T02:51:59;99917.03;;;17.44;56.75
73501;BME280;61721;42.206;25.320;2023-09-19T02:54:28;99923.19;;;17.59;55.91
73501;BME280;61721;42.206;25.320;2023-09-19T02:56:55;99909.31;;;17.47;56.26
73501;BME280;61721;42.206;25.320;2023-09-19T02:59:25;99910.31;;;17.40;55.93
73501;BME280;61721;42.206;25.320;2023-09-19T03:01:54;99907.78;;;17.32;56.55
73501;BME280;61721;42.206;25.320;2023-09-19T03:04:21;99912.22;;;17.39;56.46
73501;BME280;61721;42.206;25.320;2023-09-19T03:06:49;99901.28;;;17.33;56.90
73501;BME280;61721;42.206;25.320;2023-09-19T03:09:17;99907.59;;;17.40;57.06
73501;BME280;61721;42.206;25.320;2023-09-19T03:11:54;99899.81;;;17.30;57.44
73501;BME280;61721;42.206;25.320;2023-09-19T03:14:21;99906.59;;;17.47;57.17
73501;BME280;61721;42.206;25.320;2023-09-19T03:16:50;99905.13;;;17.45;57.26
73501;BME280;61721;42.206;25.320;2023-09-19T03:19:18;99905.91;;;17.32;57.47
73501;BME280;61721;42.206;25.320;2023-09-19T03:21:46;99893.69;;;17.22;57.90
73501;BME280;61721;42.206;25.320;2023-09-19T03:24:16;99901.09;;;17.34;57.91
73501;BME280;61721;42.206;25.320;2023-09-19T03:26:43;99906.53;;;17.34;58.03
73501;BME280;61721;42.206;25.320;2023-09-19T03:29:12;99910.97;;;17.42;57.98
73501;BME280;61721;42.206;25.320;2023-09-19T03:31:41;99912.41;;;17.38;57.88
73501;BME280;61721;42.206;25.320;2023-09-19T03:34:09;99912.63;;;17.36;58.08
73501;BME280;61721;42.206;25.320;2023-09-19T03:36:36;99913.94;;;17.53;57.47
73501;BME280;61721;42.206;25.320;2023-09-19T03:39:04;99910.94;;;17.35;57.67
73501;BME280;61721;42.206;25.320;2023-09-19T03:41:31;99919.13;;;17.42;57.65
73501;BME280;61721;42.206;25.320;2023-09-19T03:43:59;99920.75;;;17.71;56.02
73501;BME280;61721;42.206;25.320;2023-09-19T03:46:27;99916.00;;;17.45;56.67
73501;BME280;61721;42.206;25.320;2023-09-19T03:48:56;99915.06;;;17.25;57.19
73501;BME280;61721;42.206;25.320;2023-09-19T03:51:23;99924.47;;;17.22;57.39
73501;BME280;61721;42.206;25.320;2023-09-19T03:53:50;99926.53;;;17.13;57.92
73501;BME280;61721;42.206;25.320;2023-09-19T03:56:18;99924.78;;;17.40;57.32
73501;BME280;61721;42.206;25.320;2023-09-19T03:58:45;99922.31;;;17.52;56.67
73501;BME280;61721;42.206;25.320;2023-09-19T04:01:12;99930.19;;;17.34;57.17
73501;BME280;61721;42.206;25.320;2023-09-19T04:03:42;99931.84;;;17.28;57.18
73501;BME280;61721;42.206;25.320;2023-09-19T04:06:13;99933.41;;;17.50;56.35
73501;BME280;61721;42.206;25.320;2023-09-19T04:08:41;99934.06;;;17.59;55.80
73501;BME280;61721;42.206;25.320;2023-09-19T04:11:09;99934.19;;;17.38;56.22
73501;BME280;61721;42.206;25.320;2023-09-19T04:13:43;99936.44;;;17.28;56.48
73501;BME280;61721;42.206;25.320;2023-09-19T04:16:11;99942.56;;;17.36;56.51
73501;BME280;61721;42.206;25.320;2023-09-19T04:18:39;99939.81;;;17.30;56.16
73501;BME280;61721;42.206;25.320;2023-09-19T04:21:08;99941.94;;;17.41;55.87
73501;BME280;61721;42.206;25.320;2023-09-19T04:23:35;99933.66;;;17.14;56.93
73501;BME280;61721;42.206;25.320;2023-09-19T04:26:03;99937.19;;;17.15;56.58
73501;BME280;61721;42.206;25.320;2023-09-19T04:28:31;99942.03;;;17.19;56.43
73501;BME280;61721;42.206;25.320;2023-09-19T04:30:59;99935.59;;;17.27;56.12
73501;BME280;61721;42.206;25.320;2023-09-19T04:33:29;99941.56;;;17.44;55.99
73501;BME280;61721;42.206;25.320;2023-09-19T04:35:56;99939.63;;;17.38;56.48
73501;BME280;61721;42.206;25.320;2023-09-19T04:38:25;99939.81;;;17.30;56.89
73501;BME280;61721;42.206;25.320;2023-09-19T04:40:57;99944.69;;;17.41;56.77
73501;BME280;61721;42.206;25.320;2023-09-19T04:43:25;99944.09;;;17.52;56.58
73501;BME280;61721;42.206;25.320;2023-09-19T04:45:54;99941.56;;;17.44;57.05
73501;BME280;61721;42.206;25.320;2023-09-19T04:48:22;99940.47;;;17.79;56.21
73501;BME280;61721;42.206;25.320;2023-09-19T04:50:51;99937.31;;;17.76;56.21
73501;BME280;61721;42.206;25.320;2023-09-19T04:53:18;99938.19;;;17.83;56.53
73501;BME280;61721;42.206;25.320;2023-09-19T04:55:51;99927.94;;;17.92;56.38
73501;BME280;61721;42.206;25.320;2023-09-19T04:58:21;99933.00;;;18.01;56.16
73501;BME280;61721;42.206;25.320;2023-09-19T05:00:49;99935.31;;;18.24;55.75
73501;BME280;61721;42.206;25.320;2023-09-19T05:03:16;99935.53;;;18.29;55.97
73501;BME280;61721;42.206;25.320;2023-09-19T05:05:46;99939.28;;;18.28;56.02
73501;BME280;61721;42.206;25.320;2023-09-19T05:08:13;99944.34;;;18.58;55.58
73501;BME280;61721;42.206;25.320;2023-09-19T05:10:41;99939.31;;;18.55;55.74
73501;BME280;61721;42.206;25.320;2023-09-19T05:13:10;99938.47;;;18.47;55.94
73501;BME280;61721;42.206;25.320;2023-09-19T05:15:37;99942.06;;;18.68;55.90
73501;BME280;61721;42.206;25.320;2023-09-19T05:18:05;99938.50;;;18.67;56.46
73501;BME280;61721;42.206;25.320;2023-09-19T05:20:33;99938.69;;;19.05;55.40
73501;BME280;61721;42.206;25.320;2023-09-19T05:23:03;99939.53;;;18.99;55.75
73501;BME280;61721;42.206;25.320;2023-09-19T05:25:34;99932.50;;;19.43;54.67
73501;BME280;61721;42.206;25.320;2023-09-19T05:28:05;99931.31;;;19.12;55.37
73501;BME280;61721;42.206;25.320;2023-09-19T05:30:35;99938.84;;;19.24;55.16
73501;BME280;61721;42.206;25.320;2023-09-19T05:33:04;99940.16;;;19.01;55.94
73501;BME280;61721;42.206;25.320;2023-09-19T05:35:31;99940.41;;;18.80;56.80
73501;BME280;61721;42.206;25.320;2023-09-19T05:37:59;99940.41;;;18.67;56.80
73501;BME280;61721;42.206;25.320;2023-09-19T05:40:26;99932.63;;;18.84;56.43
73501;BME280;61721;42.206;25.320;2023-09-19T05:42:54;99945.44;;;18.83;56.44
73501;BME280;61721;42.206;25.320;2023-09-19T05:45:21;99937.25;;;18.63;57.06
73501;BME280;61721;42.206;25.320;2023-09-19T05:47:51;99943.28;;;18.39;57.21
73501;BME280;61721;42.206;25.320;2023-09-19T05:50:26;99944.78;;;18.55;56.74
73501;BME280;61721;42.206;25.320;2023-09-19T05:52:54;99940.81;;;18.77;55.89
73501;BME280;61721;42.206;25.320;2023-09-19T05:55:22;99939.31;;;18.55;56.47
73501;BME280;61721;42.206;25.320;2023-09-19T05:57:51;99930.31;;;18.67;55.83
73501;BME280;61721;42.206;25.320;2023-09-19T06:00:19;99937.22;;;18.96;54.88
73501;BME280;61721;42.206;25.320;2023-09-19T06:02:51;99936.38;;;19.02;54.96
73501;BME280;61721;42.206;25.320;2023-09-19T06:05:19;99937.09;;;19.56;53.73
73501;BME280;61721;42.206;25.320;2023-09-19T06:07:47;99935.91;;;19.25;55.05
73501;BME280;61721;42.206;25.320;2023-09-19T06:10:14;99946.34;;;19.48;54.84
73501;BME280;61721;42.206;25.320;2023-09-19T06:12:43;99938.88;;;20.20;53.26
73501;BME280;61721;42.206;25.320;2023-09-19T06:15:11;99943.25;;;20.59;51.73
73501;BME280;61721;42.206;25.320;2023-09-19T06:17:41;99952.78;;;20.50;52.03
73501;BME280;61721;42.206;25.320;2023-09-19T06:20:11;99936.09;;;20.58;52.54
73501;BME280;61721;42.206;25.320;2023-09-19T06:22:41;99931.75;;;20.75;51.82
73501;BME280;61721;42.206;25.320;2023-09-19T06:25:09;99938.56;;;20.84;51.19
73501;BME280;61721;42.206;25.320;2023-09-19T06:27:38;99939.53;;;20.96;51.49
73501;BME280;61721;42.206;25.320;2023-09-19T06:30:08;99942.28;;;22.06;49.21
73501;BME280;61721;42.206;25.320;2023-09-19T06:32:37;99939.94;;;22.63;47.70
73501;BME280;61721;42.206;25.320;2023-09-19T06:35:05;99939.84;;;22.28;48.89
73501;BME280;61721;42.206;25.320;2023-09-19T06:37:36;99937.78;;;22.12;48.45
73501;BME280;61721;42.206;25.320;2023-09-19T06:40:07;99937.44;;;22.61;48.23
73501;BME280;61721;42.206;25.320;2023-09-19T06:42:36;99942.63;;;22.93;47.27
73501;BME280;61721;42.206;25.320;2023-09-19T06:45:05;99940.47;;;23.30;46.70
73501;BME280;61721;42.206;25.320;2023-09-19T06:47:32;99936.19;;;22.04;48.59
73501;BME280;61721;42.206;25.320;2023-09-19T06:49:59;99933.00;;;21.89;48.53
73501;BME280;61721;42.206;25.320;2023-09-19T06:52:28;99937.69;;;22.00;49.08
73501;BME280;61721;42.206;25.320;2023-09-19T06:54:59;99935.97;;;22.47;48.04
73501;BME280;61721;42.206;25.320;2023-09-19T06:57:28;99935.59;;;22.44;47.59
73501;BME280;61721;42.206;25.320;2023-09-19T06:59:56;99939.09;;;22.62;47.15
73501;BME280;61721;42.206;25.320;2023-09-19T07:02:23;99937.59;;;23.25;47.19
73501;BME280;61721;42.206;25.320;2023-09-19T07:04:51;99937.03;;;23.75;44.86
73501;BME280;61721;42.206;25.320;2023-09-19T07:07:18;99930.53;;;22.71;46.81
73501;BME280;61721;42.206;25.320;2023-09-19T07:09:46;99923.63;;;22.91;46.82
73501;BME280;61721;42.206;25.320;2023-09-19T07:12:16;99919.66;;;23.34;45.82
73501;BME280;61721;42.206;25.320;2023-09-19T07:14:43;99925.53;;;24.35;43.81
73501;BME280;61721;42.206;25.320;2023-09-19T07:17:11;99922.41;;;24.76;43.14
73501;BME280;61721;42.206;25.320;2023-09-19T07:19:38;99923.34;;;25.37;41.08
73501;BME280;61721;42.206;25.320;2023-09-19T07:22:06;99926.53;;;25.29;41.44
73501;BME280;61721;42.206;25.320;2023-09-19T07:24:33;99923.72;;;24.40;42.54
73501;BME280;61721;42.206;25.320;2023-09-19T07:27:02;99921.38;;;24.82;43.66
73501;BME280;61721;42.206;25.320;2023-09-19T07:29:32;99923.91;;;25.39;42.08
73501;BME280;61721;42.206;25.320;2023-09-19T07:31:59;99921.63;;;25.97;40.91
73501;BME280;61721;42.206;25.320;2023-09-19T07:34:27;99927.13;;;26.24;40.29
73501;BME280;61721;42.206;25.320;2023-09-19T07:36:54;99920.84;;;26.06;39.74
73501;BME280;61721;42.206;25.320;2023-09-19T07:39:22;99910.47;;;25.86;40.45
73501;BME280;61721;42.206;25.320;2023-09-19T07:41:50;99918.59;;;25.98;41.09
73501;BME280;61721;42.206;25.320;2023-09-19T07:44:17;99911.41;;;25.53;41.77
73501;BME280;61721;42.206;25.320;2023-09-19T07:46:46;99913.66;;;26.00;40.67
73501;BME280;61721;42.206;25.320;2023-09-19T07:49:16;99908.72;;;26.07;40.73
73501;BME280;61721;42.206;25.320;2023-09-19T07:51:45;99902.75;;;26.74;39.31
73501;BME280;61721;42.206;25.320;2023-09-19T07:54:13;99899.69;;;25.85;40.53
73501;BME280;61721;42.206;25.320;2023-09-19T07:56:40;99903.06;;;26.83;39.76
73501;BME280;61721;42.206;25.320;2023-09-19T07:59:08;99897.72;;;27.03;39.15
73501;BME280;61721;42.206;25.320;2023-09-19T08:01:37;99897.56;;;25.92;40.19
73501;BME280;61721;42.206;25.320;2023-09-19T08:04:07;99891.66;;;26.69;37.56
73501;BME280;61721;42.206;25.320;2023-09-19T08:06:34;99894.31;;;27.38;37.06
73501;BME280;61721;42.206;25.320;2023-09-19T08:09:03;99890.16;;;27.36;36.60
73501;BME280;61721;42.206;25.320;2023-09-19T08:11:37;99888.47;;;26.50;38.09
73501;BME280;61721;42.206;25.320;2023-09-19T08:14:06;99889.88;;;26.26;38.26
73501;BME280;61721;42.206;25.320;2023-09-19T08:16:34;99898.66;;;26.82;36.80
73501;BME280;61721;42.206;25.320;2023-09-19T08:19:01;99894.53;;;26.84;36.96
73501;BME280;61721;42.206;25.320;2023-09-19T08:21:30;99884.09;;;26.01;39.08
73501;BME280;61721;42.206;25.320;2023-09-19T08:23:57;99882.50;;;25.34;39.06
73501;BME280;61721;42.206;25.320;2023-09-19T08:26:25;99875.22;;;26.26;38.36
73501;BME280;61721;42.206;25.320;2023-09-19T08:28:52;99882.09;;;26.87;37.61
73501;BME280;61721;42.206;25.320;2023-09-19T08:31:21;99867.13;;;26.41;36.99
73501;BME280;61721;42.206;25.320;2023-09-19T08:33:50;99877.72;;;26.54;37.28
73501;BME280;61721;42.206;25.320;2023-09-19T08:36:18;99874.47;;;27.57;35.54
73501;BME280;61721;42.206;25.320;2023-09-19T08:38:47;99865.75;;;26.16;37.18
73501;BME280;61721;42.206;25.320;2023-09-19T08:41:17;99865.69;;;25.79;37.87
73501;BME280;61721;42.206;25.320;2023-09-19T08:43:44;99858.94;;;25.92;36.20
73501;BME280;61721;42.206;25.320;2023-09-19T08:46:15;99852.22;;;26.42;35.75
73501;BME280;61721;42.206;25.320;2023-09-19T08:48:46;99854.09;;;26.36;34.05
73501;BME280;61721;42.206;25.320;2023-09-19T08:51:23;99834.06;;;27.51;32.89
73501;BME280;61721;42.206;25.320;2023-09-19T08:54:03;99845.25;;;26.71;32.65
73501;BME280;61721;42.206;25.320;2023-09-19T08:56:33;99842.44;;;26.66;32.81
73501;BME280;61721;42.206;25.320;2023-09-19T08:59:03;99835.34;;;28.16;33.11
73501;BME280;61721;42.206;25.320;2023-09-19T09:01:33;99838.72;;;27.35;34.00
73501;BME280;61721;42.206;25.320;2023-09-19T09:04:02;99837.69;;;26.57;35.69
73501;BME280;61721;42.206;25.320;2023-09-19T09:06:29;99833.97;;;28.13;32.24
73501;BME280;61721;42.206;25.320;2023-09-19T09:09:00;99829.13;;;29.15;30.93
73501;BME280;61721;42.206;25.320;2023-09-19T09:11:27;99826.16;;;29.66;30.52
73501;BME280;61721;42.206;25.320;2023-09-19T09:13:55;99827.09;;;29.95;29.31
73501;BME280;61721;42.206;25.320;2023-09-19T09:16:23;99819.25;;;28.73;30.64
73501;BME280;61721;42.206;25.320;2023-09-19T09:18:51;99811.47;;;29.65;29.26
73501;BME280;61721;42.206;25.320;2023-09-19T09:21:20;99813.69;;;28.89;29.92
73501;BME280;61721;42.206;25.320;2023-09-19T09:23:48;99817.44;;;29.83;29.47
73501;BME280;61721;42.206;25.320;2023-09-19T09:29:04;99813.75;;;29.53;28.73
73501;BME280;61721;42.206;25.320;2023-09-19T09:31:32;99809.50;;;29.66;28.98
73501;BME280;61721;42.206;25.320;2023-09-19T09:34:00;99805.91;;;29.65;29.30
73501;BME280;61721;42.206;25.320;2023-09-19T09:36:34;99808.91;;;30.18;27.91
73501;BME280;61721;42.206;25.320;2023-09-19T09:39:02;99801.69;;;29.73;29.19
73501;BME280;61721;42.206;25.320;2023-09-19T09:41:43;99789.56;;;28.94;29.01
73501;BME280;61721;42.206;25.320;2023-09-19T09:44:15;99797.47;;;29.26;28.47
73501;BME280;61721;42.206;25.320;2023-09-19T09:46:45;99787.03;;;29.62;27.27
73501;BME280;61721;42.206;25.320;2023-09-19T09:49:47;99783.28;;;28.58;29.64
73501;BME280;61721;42.206;25.320;2023-09-19T09:52:20;99786.75;;;30.42;27.36
73501;BME280;61721;42.206;25.320;2023-09-19T09:54:59;99778.72;;;29.03;28.06
73501;BME280;61721;42.206;25.320;2023-09-19T09:57:32;99779.19;;;30.48;27.66
73501;BME280;61721;42.206;25.320;2023-09-19T10:00:07;99776.69;;;30.99;26.33
73501;BME280;61721;42.206;25.320;2023-09-19T10:02:45;99781.03;;;31.72;25.03
73501;BME280;61721;42.206;25.320;2023-09-19T10:05:14;99778.47;;;30.66;26.80
73501;BME280;61721;42.206;25.320;2023-09-19T10:07:48;99768.41;;;30.41;27.50
73501;BME280;61721;42.206;25.320;2023-09-19T10:10:30;99764.13;;;29.47;27.54
73501;BME280;61721;42.206;25.320;2023-09-19T10:13:06;99767.72;;;30.25;26.85
73501;BME280;61721;42.206;25.320;2023-09-19T10:15:39;99768.19;;;30.03;26.52
73501;BME280;61721;42.206;25.320;2023-09-19T10:18:13;99757.06;;;29.64;27.13
73501;BME280;61721;42.206;25.320;2023-09-19T10:20:45;99764.78;;;29.72;26.95
73501;BME280;61721;42.206;25.320;2023-09-19T10:23:17;99753.75;;;30.01;26.97
73501;BME280;61721;42.206;25.320;2023-09-19T10:25:49;99758.25;;;29.53;27.33
73501;BME280;61721;42.206;25.320;2023-09-19T10:28:18;99761.13;;;29.77;27.19
73501;BME280;61721;42.206;25.320;2023-09-19T10:30:48;99757.63;;;30.06;27.52
73501;BME280;61721;42.206;25.320;2023-09-19T10:33:17;99753.69;;;30.12;26.02
73501;BME280;61721;42.206;25.320;2023-09-19T10:35:47;99751.88;;;30.26;25.42
73501;BME280;61721;42.206;25.320;2023-09-19T10:38:17;99748.81;;;31.04;25.66
73501;BME280;61721;42.206;25.320;2023-09-19T10:40:49;99737.16;;;28.93;27.28
73501;BME280;61721;42.206;25.320;2023-09-19T10:43:20;99735.09;;;29.19;27.44
73501;BME280;61721;42.206;25.320;2023-09-19T10:45:49;99733.34;;;29.38;27.49
73501;BME280;61721;42.206;25.320;2023-09-19T10:48:24;99738.25;;;30.53;26.01
73501;BME280;61721;42.206;25.320;2023-09-19T10:50:56;99727.59;;;31.88;23.94
73501;BME280;61721;42.206;25.320;2023-09-19T10:53:27;99725.34;;;32.23;23.22
73501;BME280;61721;42.206;25.320;2023-09-19T10:55:59;99716.50;;;32.48;23.08
73501;BME280;61721;42.206;25.320;2023-09-19T10:58:37;99716.22;;;32.17;23.61
73501;BME280;61721;42.206;25.320;2023-09-19T11:01:08;99710.53;;;32.69;23.01
73501;BME280;61721;42.206;25.320;2023-09-19T11:03:38;99713.13;;;32.19;22.01
73501;BME280;61721;42.206;25.320;2023-09-19T11:06:11;99700.72;;;32.71;22.04
73501;BME280;61721;42.206;25.320;2023-09-19T11:08:55;99696.69;;;32.50;21.43
73501;BME280;61721;42.206;25.320;2023-09-19T11:11:41;99696.13;;;30.70;23.18
73501;BME280;61721;42.206;25.320;2023-09-19T11:17:40;99686.81;;;31.41;22.94
73501;BME280;61721;42.206;25.320;2023-09-19T11:20:23;99684.03;;;31.79;22.59
73501;BME280;61721;42.206;25.320;2023-09-19T11:23:20;99676.00;;;31.91;21.91
73501;BME280;61721;42.206;25.320;2023-09-19T11:25:53;99679.69;;;31.16;22.34
73501;BME280;61721;42.206;25.320;2023-09-19T11:28:30;99679.31;;;31.23;21.94
73501;BME280;61721;42.206;25.320;2023-09-19T11:30:58;99662.97;;;31.35;22.33
73501;BME280;61721;42.206;25.320;2023-09-19T11:33:26;99659.94;;;32.02;21.96
73501;BME280;61721;42.206;25.320;2023-09-19T11:36:03;99652.03;;;30.11;23.73
73501;BME280;61721;42.206;25.320;2023-09-19T11:38:59;99639.22;;;29.07;25.09
73501;BME280;61721;42.206;25.320;2023-09-19T11:41:37;99640.81;;;29.58;24.80
73501;BME280;61721;42.206;25.320;2023-09-19T11:44:33;99640.69;;;29.73;23.65
73501;BME280;61721;42.206;25.320;2023-09-19T11:47:06;99626.56;;;28.91;24.96
73501;BME280;61721;42.206;25.320;2023-09-19T11:49:35;99630.75;;;29.67;24.16
73501;BME280;61721;42.206;25.320;2023-09-19T11:52:08;99620.03;;;29.84;23.67
73501;BME280;61721;42.206;25.320;2023-09-19T11:54:37;99625.75;;;29.69;24.12
73501;BME280;61721;42.206;25.320;2023-09-19T11:57:07;99619.84;;;29.41;24.47
73501;BME280;61721;42.206;25.320;2023-09-19T11:59:39;99625.25;;;30.20;24.23
73501;BME280;61721;42.206;25.320;2023-09-19T12:02:08;99608.50;;;28.99;24.91
73501;BME280;61721;42.206;25.320;2023-09-19T12:04:46;99614.94;;;29.28;24.45
73501;BME280;61721;42.206;25.320;2023-09-19T12:07:15;99615.91;;;29.53;24.19
73501;BME280;61721;42.206;25.320;2023-09-19T12:09:44;99609.34;;;30.01;23.49
73501;BME280;61721;42.206;25.320;2023-09-19T12:12:19;99597.69;;;29.70;23.97
73501;BME280;61721;42.206;25.320;2023-09-19T12:14:48;99604.88;;;30.06;23.97
73501;BME280;61721;42.206;25.320;2023-09-19T12:17:17;99603.09;;;30.15;23.73
73501;BME280;61721;42.206;25.320;2023-09-19T12:19:52;99596.72;;;30.38;23.18
73501;BME280;61721;42.206;25.320;2023-09-19T12:22:19;99587.47;;;30.43;22.98
73501;BME280;61721;42.206;25.320;2023-09-19T12:24:47;99586.22;;;30.78;22.20
73501;BME280;61721;42.206;25.320;2023-09-19T12:27:16;99578.22;;;29.41;23.69
73501;BME280;61721;42.206;25.320;2023-09-19T12:29:44;99575.31;;;28.84;24.15
73501;BME280;61721;42.206;25.320;2023-09-19T12:32:12;99577.75;;;30.21;23.33
73501;BME280;61721;42.206;25.320;2023-09-19T12:34:50;99588.16;;;30.11;23.43
73501;BME280;61721;42.206;25.320;2023-09-19T12:37:18;99571.41;;;30.16;23.04
73501;BME280;61721;42.206;25.320;2023-09-19T12:39:49;99578.63;;;30.64;22.84
73501;BME280;61721;42.206;25.320;2023-09-19T12:42:20;99567.13;;;30.90;22.86
73501;BME280;61721;42.206;25.320;2023-09-19T12:44:49;99568.72;;;30.53;23.67
73501;BME280;61721;42.206;25.320;2023-09-19T12:47:23;99564.91;;;30.25;23.19
73501;BME280;61721;42.206;25.320;2023-09-19T12:50:12;99565.09;;;30.34;23.29
73501;BME280;61721;42.206;25.320;2023-09-19T12:52:45;99566.06;;;31.05;23.01
73501;BME280;61721;42.206;25.320;2023-09-19T12:55:23;99558.31;;;31.53;22.25
73501;BME280;61721;42.206;25.320;2023-09-19T12:58:08;99556.09;;;31.36;21.71
73501;BME280;61721;42.206;25.320;2023-09-19T13:00:37;99548.84;;;30.22;22.85
73501;BME280;61721;42.206;25.320;2023-09-19T13:03:16;99547.22;;;30.64;22.57
73501;BME280;61721;42.206;25.320;2023-09-19T13:05:53;99546.53;;;30.72;22.97
73501;BME280;61721;42.206;25.320;2023-09-19T13:08:22;99540.97;;;30.72;22.67
73501;BME280;61721;42.206;25.320;2023-09-19T13:11:09;99536.56;;;30.04;23.68
73501;BME280;61721;42.206;25.320;2023-09-19T13:13:40;99539.16;;;30.20;23.54